Time;durP1;ratioP1;P1;durP2;ratioP2;P2;SDS_P1;SDS_P2;PMS_P1;PMS_P2;Temp;Humidity;BMP_temperature;BMP_pressure;BME280_temperature;BME280_humidity;BME280_pressure;Samples;Min_cycle;Max_cycle;Signal;HPM_P1;HPM_P2
2022/06/03 00:02:49;;;;;;;4.28;3.92;;;;;;;12.98;80.55;102142.75;5073798;28;20220;-74
2022/06/03 00:05:37;;;;;;;4.13;3.72;;;;;;;12.96;80.66;102139.31;5065397;28;20098;-74
2022/06/03 00:08:31;;;;;;;5.57;3.85;;;;;;;12.95;80.86;102139.34;5080265;28;20275;-74
2022/06/03 00:10:59;;;;;;;6.43;4.07;;;;;;;12.87;81.38;102135.19;5079834;28;20279;-74
2022/06/03 00:13:46;;;;;;;6.30;4.05;;;;;;;12.87;81.28;102132.56;5079839;28;20381;-74
2022/06/03 00:16:26;;;;;;;4.07;3.67;;;;;;;12.89;80.79;102126.41;5077896;28;20040;-74
2022/06/03 00:19:11;;;;;;;4.28;3.97;;;;;;;12.88;81.00;102130.81;5079977;28;20048;-75
2022/06/03 00:22:07;;;;;;;4.20;3.90;;;;;;;12.86;80.98;102129.97;5042472;28;20036;-75
2022/06/03 00:24:51;;;;;;;4.45;3.60;;;;;;;12.82;81.18;102131.88;5070653;28;20028;-74
2022/06/03 00:27:45;;;;;;;4.20;3.88;;;;;;;12.82;81.10;102125.72;5079253;28;20458;-75
2022/06/03 00:30:41;;;;;;;3.88;3.58;;;;;;;12.79;80.91;102131.94;5068873;28;20036;-74
2022/06/03 00:33:12;;;;;;;4.15;3.78;;;;;;;12.77;81.10;102128.50;5079479;28;20033;-74
2022/06/03 00:36:02;;;;;;;4.28;3.85;;;;;;;12.75;80.94;102132.94;5078923;28;20036;-75
2022/06/03 00:38:33;;;;;;;4.13;3.40;;;;;;;12.76;80.71;102118.03;5079662;28;20036;-74
2022/06/03 00:40:58;;;;;;;3.83;3.53;;;;;;;12.82;80.74;102118.72;5079453;28;20051;-74
2022/06/03 00:43:52;;;;;;;4.63;3.07;;;;;;;12.84;80.46;102122.16;5078647;28;20067;-74
2022/06/03 00:46:39;;;;;;;4.35;3.45;;;;;;;12.85;80.09;102118.59;5078302;28;20285;-74
2022/06/03 00:49:16;;;;;;;4.22;3.50;;;;;;;12.84;80.14;102113.38;5079057;28;20071;-74
2022/06/03 00:52:04;;;;;;;4.22;3.47;;;;;;;12.84;79.94;102111.63;5079184;28;20032;-74
2022/06/03 00:54:39;;;;;;;3.60;3.40;;;;;;;12.84;80.01;102110.75;5079533;28;20044;-74
2022/06/03 00:57:42;;;;;;;3.70;3.40;;;;;;;12.84;79.70;102109.00;5078412;28;20320;-74
2022/06/03 01:00:28;;;;;;;3.75;3.45;;;;;;;12.83;79.58;102115.16;5060126;28;20039;-75
2022/06/03 01:03:35;;;;;;;4.55;3.97;;;;;;;12.79;79.59;102120.56;5078135;28;20032;-74
2022/06/03 01:06:34;;;;;;;3.83;3.47;;;;;;;12.77;79.88;102117.09;5078230;28;20039;-74
2022/06/03 01:09:21;;;;;;;3.67;3.33;;;;;;;12.74;79.61;102112.81;5078918;28;20046;-74
2022/06/03 01:11:50;;;;;;;4.85;3.72;;;;;;;12.74;79.81;102111.97;5078659;28;20044;-74
2022/06/03 01:14:46;;;;;;;3.65;3.35;;;;;;;12.74;79.70;102104.06;5079060;28;20036;-74
2022/06/03 01:17:35;;;;;;;3.50;3.25;;;;;;;12.73;79.85;102112.84;5077926;28;20052;-74
2022/06/03 01:20:18;;;;;;;3.95;3.58;;;;;;;12.75;79.86;102104.03;5078312;28;20395;-74
2022/06/03 01:22:52;;;;;;;6.28;3.50;;;;;;;12.74;79.41;102107.56;5063737;28;20047;-74
2022/06/03 01:25:50;;;;;;;4.68;3.15;;;;;;;12.73;79.22;102103.19;5077331;28;20282;-74
2022/06/03 01:28:33;;;;;;;3.55;3.25;;;;;;;12.74;79.45;102098.81;5029458;28;20056;-74
2022/06/03 01:31:32;;;;;;;3.85;3.55;;;;;;;12.74;79.38;102096.19;5047649;28;20103;-74
2022/06/03 01:34:15;;;;;;;5.72;3.75;;;;;;;12.75;79.28;102090.00;5078977;28;20247;-74
2022/06/03 01:37:06;;;;;;;4.47;3.70;;;;;;;12.73;79.47;102090.03;5077907;28;20056;-75
2022/06/03 01:40:13;;;;;;;5.47;3.58;;;;;;;12.73;79.04;102082.16;5078838;28;20228;-75
2022/06/03 01:43:03;;;;;;;6.50;3.50;;;;;;;12.72;79.16;102085.72;5077123;28;20100;-74
2022/06/03 01:45:50;;;;;;;3.70;3.40;;;;;;;12.72;78.76;102087.50;5078466;28;20100;-75
2022/06/03 01:48:33;;;;;;;3.70;3.15;;;;;;;12.75;78.89;102087.38;5077791;28;20051;-75
2022/06/03 01:51:25;;;;;;;3.53;2.88;;;;;;;12.74;78.78;102091.78;5078261;28;20090;-75
2022/06/03 01:54:10;;;;;;;3.22;3.00;;;;;;;12.74;78.81;102085.66;5078722;28;20047;-74
2022/06/03 01:57:02;;;;;;;3.13;2.83;;;;;;;12.74;78.71;102083.91;5059839;28;20285;-74
2022/06/03 02:00:05;;;;;;;4.82;3.40;;;;;;;12.73;78.58;102082.16;5078693;28;20025;-74
2022/06/03 02:02:50;;;;;;;3.63;3.33;;;;;;;12.72;78.60;102087.50;5070931;28;20201;-75
2022/06/03 02:05:40;;;;;;;3.40;3.20;;;;;;;12.72;78.14;102079.59;5077406;28;20326;-74
2022/06/03 02:08:25;;;;;;;4.70;2.78;;;;;;;12.73;78.00;102081.31;5078061;28;20056;-74
2022/06/03 02:11:19;;;;;;;3.70;3.40;;;;;;;12.70;78.37;102074.38;5078076;28;20036;-74
2022/06/03 02:14:15;;;;;;;3.90;3.47;;;;;;;12.71;78.12;102076.09;5078950;28;20308;-74
2022/06/03 02:16:50;;;;;;;2.95;2.75;;;;;;;12.73;78.26;102074.28;5077692;28;20094;-74
2022/06/03 02:19:43;;;;;;;4.80;3.00;;;;;;;12.75;77.91;102077.75;5078371;28;20201;-74
2022/06/03 02:22:29;;;;;;;3.78;2.85;;;;;;;12.76;77.59;102071.56;5059504;28;20032;-74
2022/06/03 02:25:21;;;;;;;3.35;3.00;;;;;;;12.73;77.83;102078.69;5078475;28;20365;-74
2022/06/03 02:27:49;;;;;;;3.33;2.97;;;;;;;12.74;77.50;102072.53;5078518;28;20228;-74
2022/06/03 02:30:33;;;;;;;3.65;3.05;;;;;;;12.73;77.60;102069.00;5077928;28;20107;-74
2022/06/03 02:33:07;;;;;;;3.00;2.80;;;;;;;12.73;77.34;102066.38;5078126;28;20363;-75
2022/06/03 02:35:52;;;;;;;5.68;3.58;;;;;;;12.74;77.48;102068.13;5078270;28;20097;-74
2022/06/03 02:38:30;;;;;;;4.72;3.35;;;;;;;12.74;77.44;102067.28;5080295;28;20323;-73
2022/06/03 02:41:17;;;;;;;4.15;3.00;;;;;;;12.70;77.46;102063.88;5082563;28;20051;-74
2022/06/03 02:44:11;;;;;;;3.20;2.97;;;;;;;12.70;77.25;102061.25;5082559;28;20036;-74
2022/06/03 02:47:10;;;;;;;3.88;3.58;;;;;;;12.66;77.37;102054.34;5081107;28;20028;-74
2022/06/03 02:49:54;;;;;;;4.72;3.08;;;;;;;12.66;77.46;102051.72;5063053;28;20043;-74
2022/06/03 02:52:25;;;;;;;3.15;2.90;;;;;;;12.63;77.35;102046.56;5079976;28;20266;-74
2022/06/03 02:55:14;;;;;;;4.05;2.97;;;;;;;12.60;77.11;102046.66;5080925;28;20040;-74
2022/06/03 02:58:20;;;;;;;3.42;3.13;;;;;;;12.54;77.30;102042.44;5080173;28;20047;-74
2022/06/03 03:01:08;;;;;;;3.03;2.72;;;;;;;12.50;76.99;102035.56;5081236;28;20040;-77
2022/06/03 03:04:01;;;;;;;3.58;3.28;;;;;;;12.46;77.02;102036.53;5063898;28;20032;-77
2022/06/03 03:07:04;;;;;;;3.65;3.08;;;;;;;12.43;77.04;102037.50;5081176;28;20028;-77
2022/06/03 03:09:41;;;;;;;3.55;3.13;;;;;;;12.45;76.65;102029.56;5062094;28;20367;-77
2022/06/03 03:12:33;;;;;;;4.47;3.20;;;;;;;12.41;76.92;102025.31;5063070;28;20040;-77
2022/06/03 03:15:05;;;;;;;3.58;3.20;;;;;;;12.38;76.73;102028.03;5081868;28;20051;-77
2022/06/03 03:17:33;;;;;;;4.07;2.92;;;;;;;12.37;76.81;102024.56;5081058;28;20075;-77
2022/06/03 03:20:35;;;;;;;3.20;2.90;;;;;;;12.31;76.92;102019.47;5081874;28;20051;-77
2022/06/03 03:23:06;;;;;;;3.60;2.60;;;;;;;12.26;77.14;102018.72;5081357;28;20216;-77
2022/06/03 03:25:56;;;;;;;2.90;2.70;;;;;;;12.24;76.93;102023.16;5079272;28;20086;-77
2022/06/03 03:28:24;;;;;;;2.92;2.72;;;;;;;12.26;76.87;102016.97;5061573;28;20024;-77
2022/06/03 03:31:27;;;;;;;4.85;2.80;;;;;;;12.24;76.86;102026.69;5076835;28;20385;-77
2022/06/03 03:34:05;;;;;;;2.92;2.65;;;;;;;12.24;76.99;102018.81;5048081;28;20048;-77
2022/06/03 03:37:08;;;;;;;4.45;2.90;;;;;;;12.29;77.07;102029.16;5070130;28;20059;-77
2022/06/03 03:40:04;;;;;;;2.67;2.47;;;;;;;12.31;76.72;102029.97;5078604;28;20324;-77
2022/06/03 03:42:47;;;;;;;6.25;3.05;;;;;;;12.25;76.61;102017.03;5078794;28;20078;-77
2022/06/03 03:45:50;;;;;;;6.80;3.38;;;;;;;12.23;77.12;102026.72;5060488;28;20385;-77
2022/06/03 03:48:28;;;;;;;3.53;2.83;;;;;;;12.22;77.17;102024.97;5078928;28;20082;-77
2022/06/03 03:51:38;;;;;;;2.92;2.72;;;;;;;12.21;76.76;102012.78;5079178;28;20033;-77
2022/06/03 03:54:40;;;;;;;3.92;3.05;;;;;;;12.12;77.16;102018.28;5012872;28;20252;-77
2022/06/03 03:57:24;;;;;;;3.60;2.78;;;;;;;12.12;76.99;102013.03;5078174;28;20402;-77
2022/06/03 04:00:17;;;;;;;3.72;3.10;;;;;;;12.05;77.24;102007.09;5081680;28;20056;-77
2022/06/03 04:03:23;;;;;;;3.40;3.10;;;;;;;12.04;77.58;102008.88;5079152;28;20047;-77
2022/06/03 04:06:10;;;;;;;3.70;3.13;;;;;;;12.02;77.28;102013.28;5059387;28;20033;-77
2022/06/03 04:08:46;;;;;;;4.05;3.00;;;;;;;12.00;77.66;102015.06;5065500;28;20036;-77
2022/06/03 04:11:49;;;;;;;5.53;3.30;;;;;;;11.99;77.10;102004.63;5079616;28;20043;-77
2022/06/03 04:14:41;;;;;;;3.47;3.20;;;;;;;12.00;77.14;102004.56;5079085;28;20292;-77
2022/06/03 04:17:25;;;;;;;3.08;2.80;;;;;;;11.99;77.09;102000.25;5077296;28;20049;-77
2022/06/03 04:20:15;;;;;;;3.30;3.00;;;;;;;12.01;77.12;101994.97;5061743;28;20449;-77
2022/06/03 04:23:02;;;;;;;3.38;3.08;;;;;;;11.98;77.35;101992.41;5077783;28;20044;-77
2022/06/03 04:25:41;;;;;;;3.45;3.17;;;;;;;11.99;77.30;101999.38;5077723;28;20035;-77
2022/06/03 04:28:30;;;;;;;;;;;;;;;11.98;77.19;102001.13;5078511;28;20378;-77
2022/06/03 04:31:27;;;;;;;4.38;3.15;;;;;;;12.04;76.65;102003.63;5021358;28;19917;-77
2022/06/03 04:34:15;;;;;;;3.42;3.22;;;;;;;12.02;76.70;102000.13;5038908;28;20044;-77
2022/06/03 04:36:43;;;;;;;3.10;2.92;;;;;;;12.02;76.75;101994.88;5078349;28;20032;-77
2022/06/03 04:39:24;;;;;;;3.30;3.10;;;;;;;12.02;76.82;101996.66;5078392;28;20063;-77
2022/06/03 04:42:23;;;;;;;3.50;3.20;;;;;;;12.03;76.91;101995.78;5084829;28;20048;-77
2022/06/03 04:45:16;;;;;;;3.55;3.30;;;;;;;12.04;76.91;101995.72;5078405;28;20020;-77
2022/06/03 04:48:09;;;;;;;8.00;3.33;;;;;;;12.01;76.92;101993.19;5083288;28;20044;-77
2022/06/03 04:50:37;;;;;;;3.40;3.20;;;;;;;12.02;76.89;101992.25;5078674;28;20094;-77
2022/06/03 04:53:33;;;;;;;3.37;3.07;;;;;;;11.98;76.89;101992.41;5077824;28;20059;-77
2022/06/03 04:56:11;;;;;;;5.53;3.60;;;;;;;11.97;77.28;102002.06;5060948;28;20299;-77
2022/06/03 04:58:48;;;;;;;4.25;3.40;;;;;;;11.96;77.38;101996.84;5059934;28;20063;-77
2022/06/03 05:01:32;;;;;;;4.15;3.75;;;;;;;11.98;77.53;102000.28;5077670;28;20067;-77
2022/06/03 05:04:42;;;;;;;4.20;3.42;;;;;;;11.95;77.55;101993.38;5076702;28;20099;-77
2022/06/03 05:08:01;;;;;;;5.85;4.05;;;;;;;11.99;77.26;101994.13;5077461;28;20055;-77
2022/06/03 05:10:39;;;;;;;4.15;3.80;;;;;;;11.99;77.51;102000.25;5056075;28;20040;-77
2022/06/03 05:13:43;;;;;;;4.88;3.88;;;;;;;11.98;77.68;101993.25;5077756;28;20100;-77
2022/06/03 05:16:46;;;;;;;5.75;3.72;;;;;;;12.01;77.24;102002.84;5075374;28;20157;-77
2022/06/03 05:19:31;;;;;;;5.45;3.95;;;;;;;12.04;77.36;102007.97;5077604;28;20107;-77
2022/06/03 05:22:48;;;;;;;5.80;3.50;;;;;;;12.05;77.43;102000.06;5077432;28;20375;-77
2022/06/03 05:25:16;;;;;;;4.75;3.78;;;;;;;12.06;77.42;101991.28;5043726;28;20044;-77
2022/06/03 05:28:18;;;;;;;5.30;3.92;;;;;;;12.09;77.19;101985.94;5077713;28;20036;-77
2022/06/03 05:31:14;;;;;;;5.95;4.00;;;;;;;12.12;76.85;101992.03;5059254;28;20029;-77
2022/06/03 05:33:50;;;;;;;4.18;3.88;;;;;;;12.15;77.14;101981.41;5077693;28;20025;-77
2022/06/03 05:36:43;;;;;;;7.57;4.20;;;;;;;12.17;76.73;101985.75;5068236;28;20044;-77
2022/06/03 05:39:40;;;;;;;6.93;4.45;;;;;;;12.20;76.70;101983.00;5081166;28;20064;-77
2022/06/03 05:42:28;;;;;;;6.35;4.10;;;;;;;12.24;77.00;101981.16;5081393;28;20785;-77
2022/06/03 05:45:31;;;;;;;4.80;4.33;;;;;;;12.27;76.87;101988.94;5084471;28;20078;-77
2022/06/03 05:48:20;;;;;;;5.05;4.00;;;;;;;12.32;76.72;101991.44;5083283;28;20030;-77
2022/06/03 05:51:12;;;;;;;7.13;4.70;;;;;;;12.33;76.56;101986.13;5085461;28;20036;-77
2022/06/03 05:54:12;;;;;;;6.43;4.25;;;;;;;12.41;76.48;101992.03;5081236;28;20052;-77
2022/06/03 05:57:39;;;;;;;5.97;4.38;;;;;;;12.46;76.66;101990.13;5074117;28;20035;-77
2022/06/03 06:00:38;;;;;;;6.07;4.45;;;;;;;12.52;76.62;102002.22;4972138;28;20055;-77
2022/06/03 06:03:25;;;;;;;5.10;3.90;;;;;;;12.58;75.62;101994.13;5091386;28;20040;-77
2022/06/03 06:06:09;;;;;;;4.80;4.10;;;;;;;12.62;75.58;102002.78;5076938;28;20108;-77
2022/06/03 06:08:55;;;;;;;5.20;4.10;;;;;;;12.64;75.27;101995.72;5076231;28;20119;-77
2022/06/03 06:11:37;;;;;;;4.22;3.95;;;;;;;12.67;75.24;101999.09;5063962;28;20040;-77
2022/06/03 06:14:29;;;;;;;5.75;4.40;;;;;;;12.73;74.20;101994.56;5090556;28;20055;-77
2022/06/03 06:17:11;;;;;;;4.72;4.32;;;;;;;12.76;73.98;102000.59;5082805;28;20048;-77
2022/06/03 06:19:53;;;;;;;4.70;4.35;;;;;;;12.79;74.50;102003.13;5081398;28;20036;-77
2022/06/03 06:22:35;;;;;;;8.25;4.85;;;;;;;12.84;74.48;102014.38;5062226;28;20061;-77
2022/06/03 06:25:16;;;;;;;4.78;4.28;;;;;;;12.90;73.90;102015.94;5080846;28;20035;-77
2022/06/03 06:28:00;;;;;;;6.35;4.68;;;;;;;12.94;74.03;102008.81;5060474;28;20040;-77
2022/06/03 06:30:28;;;;;;;4.57;4.22;;;;;;;12.99;73.89;102009.53;5091442;28;20043;-77
2022/06/03 06:33:22;;;;;;;5.32;4.68;;;;;;;13.02;73.50;102002.41;5071788;28;20115;-77
2022/06/03 06:35:54;;;;;;;5.72;3.88;;;;;;;13.07;73.89;102004.88;5066088;28;20054;-77
2022/06/03 06:38:47;;;;;;;9.98;4.72;;;;;;;13.12;73.90;102007.38;5061877;28;20040;-77
2022/06/03 06:41:53;;;;;;;4.80;4.35;;;;;;;13.14;73.86;102003.75;5082046;28;20145;-77
2022/06/03 06:44:33;;;;;;;7.18;5.00;;;;;;;13.21;73.58;101994.75;5006973;28;20102;-77
2022/06/03 06:47:24;;;;;;;5.68;4.97;;;;;;;13.28;73.16;101989.28;5002842;28;20060;-77
2022/06/03 06:50:17;;;;;;;4.65;4.15;;;;;;;13.33;73.23;101987.41;5065242;28;20442;-77
2022/06/03 06:52:52;;;;;;;6.43;4.53;;;;;;;13.39;72.64;101993.31;5079962;28;20028;-77
2022/06/03 06:55:36;;;;;;;6.75;4.90;;;;;;;13.43;72.50;101980.91;5083811;28;20378;-77
2022/06/03 06:58:07;;;;;;;5.18;4.68;;;;;;;13.50;72.30;101981.53;5090860;28;20036;-77
2022/06/03 07:00:38;;;;;;;4.75;4.43;;;;;;;13.54;72.44;101978.75;5092639;28;20091;-77
2022/06/03 07:03:26;;;;;;;5.05;4.55;;;;;;;13.61;72.76;101969.75;5086762;28;20078;-77
2022/06/03 07:05:59;;;;;;;4.93;4.47;;;;;;;13.68;72.60;101978.28;5092010;28;20034;-77
2022/06/03 07:09:17;;;;;;;8.18;4.97;;;;;;;13.80;70.96;101971.72;5080304;28;20036;-77
2022/06/03 07:12:18;;;;;;;4.75;4.43;;;;;;;13.87;71.27;101973.22;5063030;28;20075;-77
2022/06/03 07:14:46;;;;;;;7.20;4.80;;;;;;;13.92;72.17;101973.91;5033056;28;20155;-77
2022/06/03 07:20:37;;;;;;;9.68;4.97;;;;;;;14.05;72.29;101974.31;5089160;28;20036;-77
2022/06/03 07:23:14;;;;;;;5.47;4.43;;;;;;;14.10;72.60;101971.47;5078410;28;20036;-77
2022/06/03 07:25:54;;;;;;;4.63;4.22;;;;;;;14.18;71.96;101975.56;5086655;28;20375;-77
2022/06/03 07:28:47;;;;;;;4.97;4.32;;;;;;;14.27;71.94;101971.72;5057867;28;20100;-77
2022/06/03 07:31:36;;;;;;;5.82;4.10;;;;;;;14.36;71.04;101975.78;5077808;28;20099;-77
2022/06/03 07:34:14;;;;;;;5.75;3.83;;;;;;;14.49;70.37;101984.06;5080599;28;20284;-77
2022/06/03 07:36:55;;;;;;;5.75;4.05;;;;;;;14.54;69.89;101987.41;5082180;28;20236;-77
2022/06/03 07:39:48;;;;;;;4.22;3.83;;;;;;;14.64;70.18;101982.63;5070435;28;20055;-77
2022/06/03 07:42:31;;;;;;;4.82;3.80;;;;;;;14.69;69.54;101978.06;5075815;28;20040;-77
2022/06/03 07:45:18;;;;;;;4.47;3.72;;;;;;;14.73;69.05;101977.84;5076593;28;20028;-77
2022/06/03 07:47:44;;;;;;;4.20;3.80;;;;;;;14.81;67.99;101972.28;5078124;28;20229;-77
2022/06/03 07:50:17;;;;;;;4.00;3.70;;;;;;;14.88;68.39;101972.88;5075251;28;20051;-77
2022/06/03 07:52:51;;;;;;;4.25;3.95;;;;;;;14.93;68.67;101971.78;5077318;28;20116;-77
2022/06/03 07:55:22;;;;;;;8.57;3.80;;;;;;;14.95;68.06;101972.59;5080543;28;20032;-77
2022/06/03 07:57:55;;;;;;;4.43;3.85;;;;;;;15.06;68.60;101969.50;5077783;28;20028;-77
2022/06/03 08:00:23;;;;;;;6.88;3.90;;;;;;;15.17;68.05;101969.03;5089597;28;20035;-77
2022/06/03 08:03:15;;;;;;;7.40;3.57;;;;;;;15.24;67.84;101973.13;5085861;28;20040;-77
2022/06/03 08:05:44;;;;;;;4.15;3.80;;;;;;;15.33;67.06;101971.88;5082349;28;20286;-77
2022/06/03 08:10:58;;;;;;;4.85;4.07;;;;;;;15.41;67.08;101959.25;5067616;28;20360;-77
2022/06/03 08:13:26;;;;;;;4.03;3.67;;;;;;;15.43;67.83;101951.25;5060989;28;20099;-77
2022/06/03 08:15:58;;;;;;;4.45;4.05;;;;;;;15.48;66.66;101944.84;5061029;28;20082;-77
2022/06/03 08:18:28;;;;;;;4.47;4.07;;;;;;;15.56;66.08;101949.78;5078241;28;20340;-77
2022/06/03 08:20:59;;;;;;;7.78;4.20;;;;;;;15.66;66.77;101942.31;5080050;28;20091;-77
2022/06/03 08:23:30;;;;;;;5.60;3.97;;;;;;;15.70;65.47;101950.03;5081828;28;20095;-77
2022/06/03 08:25:58;;;;;;;6.35;3.90;;;;;;;15.74;65.99;101945.50;5079987;28;20390;-77
2022/06/03 08:28:25;;;;;;;4.05;3.67;;;;;;;15.82;66.17;101948.66;5092406;28;20038;-77
2022/06/03 08:30:55;;;;;;;6.95;4.15;;;;;;;15.87;65.38;101933.44;5088710;28;20040;-77
2022/06/03 08:33:37;;;;;;;4.20;3.90;;;;;;;15.94;65.58;101931.41;5084663;28;20042;-77
2022/06/03 08:36:03;;;;;;;6.38;3.90;;;;;;;15.99;64.96;101925.88;5090147;28;20032;-77
2022/06/03 08:38:39;;;;;;;4.05;3.75;;;;;;;16.11;64.26;101930.59;5083321;28;20308;-78
2022/06/03 08:41:12;;;;;;;5.38;3.72;;;;;;;16.17;64.97;101914.47;5087247;28;20059;-77
2022/06/03 08:43:48;;;;;;;4.40;4.00;;;;;;;16.17;64.18;101919.78;5089056;28;20043;-77
2022/06/03 08:46:23;;;;;;;4.68;4.10;;;;;;;16.24;64.79;101926.44;5079223;28;20022;-77
2022/06/03 08:48:52;;;;;;;4.63;4.07;;;;;;;16.31;64.11;101924.38;5089068;28;20096;-77
2022/06/03 08:51:24;;;;;;;4.68;4.28;;;;;;;16.34;63.92;101915.47;5078681;28;20091;-77
2022/06/03 08:53:54;;;;;;;5.28;4.00;;;;;;;16.36;64.86;101925.03;5081172;28;20047;-77
2022/06/03 08:56:23;;;;;;;4.32;3.80;;;;;;;16.42;64.19;101923.88;5080384;28;20817;-77
2022/06/03 08:58:56;;;;;;;5.30;3.53;;;;;;;16.49;63.05;101925.28;5085417;28;20331;-77
2022/06/03 09:01:41;;;;;;;4.15;3.75;;;;;;;16.59;63.32;101912.47;5087958;28;20070;-77
2022/06/03 09:04:22;;;;;;;4.22;3.60;;;;;;;16.64;63.16;101919.25;5090228;28;20355;-77
2022/06/03 09:07:05;;;;;;;6.20;3.88;;;;;;;16.75;62.38;101916.06;5090180;28;20051;-77
2022/06/03 09:09:58;;;;;;;6.57;3.90;;;;;;;16.78;62.73;101912.44;5087553;28;20284;-77
2022/06/03 09:12:29;;;;;;;4.60;3.30;;;;;;;16.85;63.16;101913.88;5086214;28;20040;-77
2022/06/03 09:15:05;;;;;;;8.15;4.00;;;;;;;16.90;63.86;101922.44;5082204;28;20040;-77
2022/06/03 09:17:54;;;;;;;7.55;4.47;;;;;;;16.98;63.36;101924.69;5084835;28;20252;-77
2022/06/03 09:20:25;;;;;;;4.20;3.90;;;;;;;17.04;64.02;101912.00;5077268;28;20579;-78
2022/06/03 09:22:58;;;;;;;12.88;4.60;;;;;;;17.11;63.84;101917.84;5059399;28;20090;-77
2022/06/03 09:25:24;;;;;;;7.80;4.38;;;;;;;17.15;63.96;101924.69;5082473;28;20103;-78
2022/06/03 09:27:51;;;;;;;4.03;3.72;;;;;;;17.21;62.79;101918.25;5083365;28;20044;-77
2022/06/03 09:30:25;;;;;;;7.15;3.85;;;;;;;17.22;62.28;101915.50;5085223;28;20044;-78
2022/06/03 09:32:51;;;;;;;4.57;4.10;;;;;;;17.24;62.68;101918.91;5079111;28;20028;-78
2022/06/03 09:35:20;;;;;;;4.72;4.32;;;;;;;17.25;63.06;101927.72;5056423;28;20107;-78
2022/06/03 09:37:50;;;;;;;5.75;3.80;;;;;;;17.30;62.81;101916.88;5080672;28;20060;-77
2022/06/03 09:40:28;;;;;;;6.70;4.53;;;;;;;17.34;63.47;101923.75;5072259;28;20378;-77
2022/06/03 09:43:03;;;;;;;8.15;4.78;;;;;;;17.37;63.25;101919.16;5074113;28;20032;-77
2022/06/03 09:45:29;;;;;;;4.93;4.53;;;;;;;17.44;61.50;101927.63;5074970;28;20048;-77
2022/06/03 09:47:55;;;;;;;15.50;4.38;;;;;;;17.49;62.23;101922.09;5073951;28;20379;-78
2022/06/03 09:50:24;;;;;;;4.80;4.40;;;;;;;17.53;62.40;101921.00;5073071;28;20044;-77
2022/06/03 09:52:59;;;;;;;6.10;4.47;;;;;;;17.57;63.00;101930.47;5076099;28;20036;-78
2022/06/03 09:55:33;;;;;;;7.20;4.57;;;;;;;17.72;61.81;101923.50;5071970;28;20384;-77
2022/06/03 09:58:01;;;;;;;4.40;4.10;;;;;;;17.75;61.80;101912.75;5056487;28;20036;-77
2022/06/03 10:00:30;;;;;;;;;;;;;;;17.86;60.96;101922.78;5075081;28;20047;-78
2022/06/03 10:02:57;;;;;;;;;;;;;;;17.93;59.72;101921.53;5058114;28;20029;-78
2022/06/03 10:05:24;;;;;;;3.28;2.97;;;;;;;18.00;59.98;101915.81;5074152;28;20206;-77
2022/06/03 10:08:05;;;;;;;6.25;3.78;;;;;;;18.07;60.49;101915.47;5056995;28;20028;-78
2022/06/03 10:13:17;;;;;;;5.68;3.05;;;;;;;18.25;58.87;101918.91;5071932;28;20078;-78
2022/06/03 10:15:53;;;;;;;3.47;3.17;;;;;;;18.20;58.69;101914.69;5056966;28;20040;-78
2022/06/03 10:18:36;;;;;;;2.97;2.80;;;;;;;18.30;58.98;101924.78;5047492;28;20328;-78
2022/06/03 10:21:05;;;;;;;3.95;3.22;;;;;;;18.35;57.72;101923.56;5072139;28;20103;-78
2022/06/03 10:23:35;;;;;;;3.20;3.00;;;;;;;18.41;58.28;101925.06;5077900;28;20583;-78
2022/06/03 10:26:01;;;;;;;2.80;2.70;;;;;;;18.50;58.03;101905.09;5075088;28;20309;-78
2022/06/03 10:28:39;;;;;;;2.65;2.50;;;;;;;18.55;57.44;101898.56;5040239;28;20032;-78
2022/06/03 10:31:16;;;;;;;2.80;2.60;;;;;;;18.57;57.19;101893.19;5080411;28;20040;-78
2022/06/03 10:33:56;;;;;;;5.68;2.60;;;;;;;18.58;56.98;101901.06;5076466;28;20066;-77
2022/06/03 10:36:26;;;;;;;5.40;2.67;;;;;;;18.65;56.96;101896.25;5057212;28;20043;-78
2022/06/03 10:38:51;;;;;;;4.68;2.78;;;;;;;18.70;56.22;101903.94;5077942;28;20024;-77
2022/06/03 10:41:17;;;;;;;3.45;2.47;;;;;;;18.72;56.62;101889.66;5077768;28;20376;-78
2022/06/03 10:43:43;;;;;;;6.72;2.30;;;;;;;18.79;56.32;101895.44;5075441;28;20462;-78
2022/06/03 10:46:13;;;;;;;2.65;2.45;;;;;;;18.84;55.53;101892.56;5056900;28;20034;-78
2022/06/03 10:48:39;;;;;;;2.63;2.42;;;;;;;18.88;55.60;101889.66;5073859;28;20332;-78
2022/06/03 11:01:06;;;;;;;4.57;2.42;;;;;;;18.92;55.34;101885.03;5074866;28;20043;-78
2022/06/03 11:02:32;;;;;;;3.17;2.88;;;;;;;19.02;54.79;101883.50;5088953;28;20182;-78
2022/06/03 11:05:19;;;;;;;4.10;2.65;;;;;;;19.10;55.13;101875.94;5088422;28;20036;-78
2022/06/03 11:08:04;;;;;;;4.28;2.50;;;;;;;19.15;54.77;101875.66;5085186;28;20290;-78
2022/06/03 11:10:45;;;;;;;2.45;2.25;;;;;;;19.21;53.45;101879.75;5090028;28;20024;-78
2022/06/03 11:13:13;;;;;;;3.15;2.40;;;;;;;19.23;53.82;101872.53;5092717;28;20040;-78
2022/06/03 11:15:47;;;;;;;7.75;2.58;;;;;;;19.30;54.06;101876.50;5097107;28;20025;-78
2022/06/03 11:18:26;;;;;;;2.20;2.10;;;;;;;19.32;53.97;101864.88;5087389;28;20059;-78
2022/06/03 11:20:53;;;;;;;4.93;2.60;;;;;;;19.36;54.68;101869.03;5095821;28;20020;-78
2022/06/03 11:23:20;;;;;;;2.90;2.35;;;;;;;19.41;54.10;101871.44;5094550;28;20017;-78
2022/06/03 11:25:56;;;;;;;2.40;2.20;;;;;;;19.53;53.48;101875.09;5082244;28;20220;-78
2022/06/03 11:28:33;;;;;;;2.78;2.55;;;;;;;19.52;54.42;101868.94;5062460;28;20027;-78
2022/06/03 11:31:29;;;;;;;4.15;2.60;;;;;;;19.56;53.89;101870.47;5086881;28;20094;-78
2022/06/03 11:34:16;;;;;;;2.58;2.40;;;;;;;19.57;53.58;101866.00;5089951;28;20028;-78
2022/06/03 11:36:49;;;;;;;2.05;1.95;;;;;;;19.64;52.83;101869.97;5089460;28;20040;-78
2022/06/03 11:39:34;;;;;;;2.63;2.25;;;;;;;19.69;52.73;101873.19;5080959;28;20037;-78
2022/06/03 11:42:13;;;;;;;2.20;1.90;;;;;;;19.83;52.61;101872.38;5085027;28;20070;-78
2022/06/03 11:44:59;;;;;;;3.65;2.30;;;;;;;19.86;51.51;101873.97;5081132;28;20048;-78
2022/06/03 11:47:37;;;;;;;3.33;1.77;;;;;;;19.89;50.93;101864.00;5092617;28;20091;-78
2022/06/03 11:50:06;;;;;;;3.15;1.80;;;;;;;19.97;50.73;101870.63;5101096;28;20075;-78
2022/06/03 11:52:31;;;;;;;1.80;1.70;;;;;;;19.92;50.46;101868.28;5063205;28;20320;-78
2022/06/03 11:54:57;;;;;;;2.17;1.40;;;;;;;19.90;49.43;101865.72;5059901;28;20035;-78
2022/06/03 11:57:23;;;;;;;1.80;1.70;;;;;;;19.92;48.97;101868.28;5079031;28;20200;-78
2022/06/03 12:00:03;;;;;;;1.70;1.60;;;;;;;19.88;49.20;101872.94;5063978;28;20036;-78
2022/06/03 12:02:35;;;;;;;2.15;1.58;;;;;;;19.92;48.69;101870.94;5071143;28;20103;-78
2022/06/03 12:05:08;;;;;;;1.70;1.60;;;;;;;19.95;49.06;101868.06;5085466;28;20296;-78
2022/06/03 12:07:39;;;;;;;3.45;1.70;;;;;;;19.99;49.48;101879.34;5093582;28;20036;-78
2022/06/03 12:10:19;;;;;;;3.42;1.70;;;;;;;19.99;48.99;101868.72;5077077;28;20028;-78
2022/06/03 12:15:31;;;;;;;1.67;1.58;;;;;;;20.05;50.26;101877.16;5081030;28;20047;-78
2022/06/03 12:18:39;;;;;;;2.60;1.33;;;;;;;20.08;48.99;101868.13;5097828;28;20243;-78
2022/06/03 12:21:08;;;;;;;1.80;1.70;;;;;;;20.11;49.21;101870.59;5080800;28;20295;-78
2022/06/03 12:23:36;;;;;;;4.72;1.85;;;;;;;20.21;49.02;101870.84;5065236;28;20271;-78
2022/06/03 12:26:37;;;;;;;4.90;1.77;;;;;;;20.19;49.21;101864.78;5078136;28;20419;-78
2022/06/03 12:29:32;;;;;;;1.60;1.50;;;;;;;20.29;48.56;101866.72;5028441;28;20044;-78
2022/06/03 12:32:12;;;;;;;3.25;1.73;;;;;;;20.28;48.39;101864.16;5077786;28;20052;-78
2022/06/03 12:34:38;;;;;;;3.08;1.80;;;;;;;20.22;48.62;101867.25;5077927;28;20351;-78
2022/06/03 12:37:38;;;;;;;2.92;1.75;;;;;;;20.16;49.00;101862.34;5078971;28;20040;-78
2022/06/03 12:40:27;;;;;;;2.55;1.77;;;;;;;20.24;48.60;101860.00;4970133;28;20349;-78
2022/06/03 12:42:52;;;;;;;;;;;;;;;20.25;48.64;101859.06;5065932;28;20194;-78
2022/06/03 12:45:26;;;;;;;4.32;1.70;;;;;;;20.31;48.16;101859.50;5077137;28;19920;-78
2022/06/03 12:47:51;;;;;;;1.98;1.38;;;;;;;20.35;47.70;101857.50;5083232;28;20405;-78
2022/06/03 12:50:21;;;;;;;3.85;1.70;;;;;;;20.33;48.01;101854.94;5081994;28;20104;-78
2022/06/03 12:52:48;;;;;;;2.85;1.33;;;;;;;20.48;47.88;101862.84;5078088;28;20213;-78
2022/06/03 12:55:28;;;;;;;2.00;1.60;;;;;;;20.49;47.43;101867.22;5073605;28;20025;-78
2022/06/03 12:57:59;;;;;;;1.67;1.58;;;;;;;20.47;47.74;101867.34;5089710;28;20036;-78